createdAt,value
2022-09-27T00:00:15.094Z,86
2022-09-27T00:05:15.104Z,86
2022-09-27T00:10:15.090Z,86
2022-09-27T00:15:15.102Z,85
2022-09-27T00:20:15.097Z,85
2022-09-27T00:25:15.097Z,85
2022-09-27T00:30:15.089Z,85
2022-09-27T00:35:15.105Z,85
2022-09-27T00:40:19.444Z,86
2022-09-27T00:45:15.117Z,86
2022-09-27T00:50:15.092Z,86
2022-09-27T00:55:15.099Z,86
2022-09-27T01:00:15.096Z,86
2022-09-27T01:05:15.108Z,86
2022-09-27T01:10:15.106Z,86
2022-09-27T01:15:15.091Z,85
2022-09-27T01:20:15.092Z,85
2022-09-27T01:25:15.106Z,85
2022-09-27T01:30:15.108Z,85
2022-09-27T01:35:15.098Z,86
2022-09-27T01:40:15.167Z,86
2022-09-27T01:45:15.103Z,86
2022-09-27T01:50:15.127Z,86
2022-09-27T01:55:15.154Z,86
2022-09-27T02:00:15.109Z,86
2022-09-27T02:05:15.116Z,86
2022-09-27T02:10:15.119Z,86
2022-09-27T02:15:15.095Z,86
2022-09-27T02:20:15.090Z,86
2022-09-27T02:25:15.109Z,86
2022-09-27T02:30:15.095Z,86
2022-09-27T02:35:15.107Z,86
2022-09-27T02:40:15.117Z,86
2022-09-27T02:45:15.099Z,86
2022-09-27T02:50:15.091Z,86
2022-09-27T02:55:15.102Z,86
2022-09-27T03:00:15.094Z,86
2022-09-27T03:05:15.090Z,86
2022-09-27T03:10:15.096Z,87
2022-09-27T03:15:15.094Z,86
2022-09-27T03:20:15.092Z,86
2022-09-27T03:25:15.104Z,86
2022-09-27T03:30:15.097Z,86
2022-09-27T03:35:15.100Z,86
2022-09-27T03:40:15.166Z,86
2022-09-27T03:45:15.099Z,86
2022-09-27T03:50:15.096Z,86
2022-09-27T03:55:15.087Z,87
2022-09-27T04:00:15.095Z,87
2022-09-27T04:05:15.107Z,87
2022-09-27T04:10:15.114Z,86
2022-09-27T04:15:15.099Z,86
2022-09-27T04:20:15.106Z,86
2022-09-27T04:25:15.110Z,86
2022-09-27T04:30:15.095Z,87
2022-09-27T04:35:15.100Z,87
2022-09-27T04:40:15.160Z,87
2022-09-27T04:45:15.093Z,87
2022-09-27T04:50:15.097Z,87
2022-09-27T04:55:15.101Z,87
2022-09-27T05:00:15.085Z,87
2022-09-27T05:05:15.102Z,87
2022-09-27T05:10:15.094Z,87
2022-09-27T05:15:15.100Z,87
2022-09-27T05:20:15.097Z,87
2022-09-27T05:25:15.104Z,87
2022-09-27T05:30:15.088Z,87
2022-09-27T05:35:15.101Z,87
2022-09-27T05:40:29.620Z,87
2022-09-27T05:45:15.087Z,87
2022-09-27T05:50:15.103Z,86
2022-09-27T05:55:15.096Z,86
2022-09-27T06:00:15.091Z,86
2022-09-27T06:05:15.105Z,86
2022-09-27T06:10:15.094Z,86
2022-09-27T06:15:15.095Z,86
2022-09-27T06:20:15.093Z,86
2022-09-27T06:25:15.103Z,86
2022-09-27T06:30:19.561Z,86
2022-09-27T06:35:15.100Z,86
2022-09-27T06:40:15.136Z,86
2022-09-27T06:45:15.101Z,85
2022-09-27T06:50:15.095Z,85
2022-09-27T06:55:15.091Z,85
2022-09-27T07:00:15.097Z,85
2022-09-27T07:05:15.098Z,85
2022-09-27T07:10:15.096Z,85
2022-09-27T07:15:15.092Z,85
2022-09-27T07:20:15.093Z,85
2022-09-27T07:25:15.105Z,85
2022-09-27T07:30:15.095Z,85
2022-09-27T07:35:15.109Z,85
2022-09-27T07:40:15.147Z,85
2022-09-27T07:45:15.097Z,85
2022-09-27T07:50:15.102Z,84
2022-09-27T07:55:15.101Z,84
2022-09-27T08:00:15.084Z,84
2022-09-27T08:05:15.094Z,84
2022-09-27T08:10:15.092Z,84
2022-09-27T08:15:15.098Z,83
2022-09-27T08:20:15.087Z,84
2022-09-27T08:25:15.093Z,83
2022-09-27T08:30:15.097Z,83
2022-09-27T08:35:15.094Z,83
2022-09-27T08:40:15.122Z,83
2022-09-27T08:45:15.096Z,82
2022-09-27T08:50:15.103Z,82
2022-09-27T08:55:15.096Z,82
2022-09-27T09:00:15.097Z,82
2022-09-27T09:05:15.099Z,83
2022-09-27T09:10:15.101Z,83
2022-09-27T09:15:15.114Z,84
2022-09-27T09:20:17.333Z,84
2022-09-27T09:25:15.099Z,83
2022-09-27T09:30:15.282Z,83
2022-09-27T09:35:15.101Z,82
2022-09-27T09:40:15.141Z,82
2022-09-27T09:45:15.096Z,82
2022-09-27T09:50:15.091Z,81
2022-09-27T09:55:15.099Z,81
2022-09-27T10:00:15.088Z,81
2022-09-27T10:05:15.094Z,80
2022-09-27T10:10:15.092Z,79
2022-09-27T10:15:15.107Z,77
2022-09-27T10:20:15.093Z,77
2022-09-27T10:25:15.098Z,77
2022-09-27T10:30:15.090Z,76
2022-09-27T10:35:15.102Z,76
2022-09-27T10:40:15.143Z,76
2022-09-27T10:45:15.117Z,75
2022-09-27T10:50:27.137Z,76
2022-09-27T10:55:15.091Z,76
2022-09-27T11:00:15.093Z,76
2022-09-27T11:05:15.855Z,76
2022-09-27T11:10:15.103Z,76
2022-09-27T11:15:15.092Z,76
2022-09-27T11:20:15.095Z,75
2022-09-27T11:25:15.097Z,74
2022-09-27T11:30:15.086Z,74
2022-09-27T11:35:15.097Z,74
2022-09-27T11:40:15.167Z,74
2022-09-27T11:50:15.098Z,72
2022-09-27T11:55:15.111Z,71
2022-09-27T12:00:15.096Z,72
2022-09-27T12:05:15.094Z,73
2022-09-27T12:10:15.093Z,73
2022-09-27T12:15:15.097Z,72
2022-09-27T12:20:15.102Z,73
2022-09-27T12:25:19.775Z,76
2022-09-27T12:30:15.095Z,76
2022-09-27T12:35:15.100Z,76
2022-09-27T12:40:15.221Z,77
2022-09-27T12:45:15.093Z,78
2022-09-27T12:50:15.212Z,79
2022-09-27T12:55:15.111Z,80
2022-09-27T13:00:15.095Z,80
2022-09-27T13:05:15.117Z,81
2022-09-27T13:10:15.086Z,80
2022-09-27T13:15:15.111Z,80
2022-09-27T13:20:15.109Z,80
2022-09-27T13:25:15.106Z,79
2022-09-27T13:30:15.100Z,79
2022-09-27T13:35:15.106Z,78
2022-09-27T13:40:15.140Z,78
2022-09-27T13:45:15.100Z,78
2022-09-27T13:50:15.102Z,77
2022-09-27T13:55:15.095Z,78
2022-09-27T14:00:15.096Z,77
2022-09-27T14:05:15.102Z,76
2022-09-27T14:10:15.092Z,76
2022-09-27T14:15:15.108Z,76
2022-09-27T14:20:15.093Z,75
2022-09-27T14:25:15.096Z,75
2022-09-27T14:30:15.088Z,75
2022-09-27T14:35:15.100Z,74
2022-09-27T14:40:15.195Z,74
2022-09-27T14:45:15.100Z,74
2022-09-27T14:50:15.095Z,75
2022-09-27T14:55:15.096Z,74
2022-09-27T15:00:15.084Z,74
2022-09-27T15:05:15.091Z,74
2022-09-27T15:10:15.087Z,73
2022-09-27T15:15:15.098Z,73
2022-09-27T15:20:15.089Z,72
2022-09-27T15:25:19.159Z,72
2022-09-27T15:30:15.099Z,73
2022-09-27T15:35:15.106Z,73
2022-09-27T15:40:15.137Z,73
2022-09-27T15:45:15.110Z,74
2022-09-27T15:50:15.089Z,74
2022-09-27T15:55:15.101Z,74
2022-09-27T16:00:15.097Z,75
2022-09-27T16:05:15.106Z,75
2022-09-27T16:10:15.092Z,76
2022-09-27T16:15:15.093Z,76
2022-09-27T16:20:15.096Z,76
2022-09-27T16:25:15.103Z,77
2022-09-27T16:30:15.091Z,77
2022-09-27T16:35:15.098Z,77
2022-09-27T16:40:15.177Z,78
2022-09-27T16:45:18.924Z,78
2022-09-27T16:50:15.084Z,79
2022-09-27T16:55:15.095Z,79
2022-09-27T17:00:15.094Z,78
2022-09-27T17:05:15.090Z,78
2022-09-27T17:10:15.100Z,79
2022-09-27T17:15:15.098Z,80
2022-09-27T17:20:15.105Z,80
2022-09-27T17:25:15.095Z,81
2022-09-27T17:30:15.103Z,81
2022-09-27T17:35:15.093Z,81
2022-09-27T17:40:15.131Z,81
2022-09-27T17:45:15.100Z,81
2022-09-27T17:50:15.093Z,82
2022-09-27T17:55:15.111Z,81
2022-09-27T18:00:15.091Z,81
2022-09-27T18:05:15.085Z,81
2022-09-27T18:10:15.095Z,81
2022-09-27T18:15:15.100Z,82
2022-09-27T18:20:15.094Z,83
2022-09-27T18:25:15.094Z,83
2022-09-27T18:30:15.095Z,83
2022-09-27T18:35:15.093Z,84
2022-09-27T18:40:15.301Z,84
2022-09-27T18:45:15.110Z,84
2022-09-27T18:50:15.087Z,84
2022-09-27T18:55:15.099Z,85
2022-09-27T19:00:15.096Z,85
2022-09-27T19:05:15.084Z,85
2022-09-27T19:10:15.092Z,85
2022-09-27T19:15:15.093Z,84
2022-09-27T19:20:15.091Z,84
2022-09-27T19:25:15.093Z,84
2022-09-27T19:30:15.099Z,84
2022-09-27T19:35:15.095Z,84
2022-09-27T19:40:15.117Z,84
2022-09-27T19:45:15.102Z,84
2022-09-27T19:50:15.105Z,84
2022-09-27T19:55:15.103Z,84
2022-09-27T20:00:15.091Z,84
2022-09-27T20:05:15.093Z,84
2022-09-27T20:10:15.090Z,84
2022-09-27T20:15:15.098Z,84
2022-09-27T20:20:15.092Z,84
2022-09-27T20:25:15.090Z,84
2022-09-27T20:30:15.091Z,84
2022-09-27T20:35:15.096Z,85
2022-09-27T20:40:15.130Z,85
2022-09-27T20:45:15.103Z,85
2022-09-27T20:50:15.084Z,85
2022-09-27T20:55:15.091Z,85
2022-09-27T21:00:15.090Z,85
2022-09-27T21:05:15.103Z,85
2022-09-27T21:10:15.092Z,85
2022-09-27T21:15:15.105Z,85
2022-09-27T21:20:15.101Z,85
2022-09-27T21:25:15.104Z,85
2022-09-27T21:30:15.090Z,85
2022-09-27T21:35:15.100Z,86
2022-09-27T21:40:15.146Z,86
2022-09-27T21:45:15.098Z,86
2022-09-27T21:50:15.089Z,86
2022-09-27T21:55:15.102Z,86
2022-09-27T22:00:15.088Z,86
2022-09-27T22:05:15.092Z,86
2022-09-27T22:10:15.092Z,86
2022-09-27T22:15:15.102Z,86
2022-09-27T22:20:15.093Z,86
2022-09-27T22:25:15.094Z,86
2022-09-27T22:30:15.092Z,86
2022-09-27T22:35:15.098Z,86
2022-09-27T22:40:15.168Z,86
2022-09-27T22:45:15.093Z,86
2022-09-27T22:50:15.100Z,86
2022-09-27T22:55:15.096Z,86
2022-09-27T23:00:15.091Z,86
2022-09-27T23:05:15.103Z,86
2022-09-27T23:10:15.106Z,86
2022-09-27T23:15:15.104Z,86
2022-09-27T23:20:15.097Z,86
2022-09-27T23:25:15.101Z,86
2022-09-27T23:30:15.096Z,86
2022-09-27T23:35:15.109Z,86
2022-09-27T23:40:15.160Z,86
2022-09-27T23:45:15.106Z,86
2022-09-27T23:50:15.101Z,86
2022-09-27T23:55:15.112Z,86
